Time;durP1;ratioP1;P1;durP2;ratioP2;P2;SDS_P1;SDS_P2;PMS_P1;PMS_P2;Temp;Humidity;BMP_temperature;BMP_pressure;BME280_temperature;BME280_humidity;BME280_pressure;Samples;Min_cycle;Max_cycle;Signal;HPM_P1;HPM_P2
2022/01/23 00:01:55;;;;;;;8.05;3.92;;;;;;;-12.38;71.39;101153.84;5083665;28;20356;-73
2022/01/23 00:04:27;;;;;;;9.55;6.75;;;;;;;-12.35;71.25;101144.06;5083638;28;20044;-74
2022/01/23 00:07:02;;;;;;;6.22;4.00;;;;;;;-12.17;71.45;101150.72;5083696;28;20489;-74
2022/01/23 00:09:35;;;;;;;6.85;4.35;;;;;;;-12.08;71.14;101139.66;5083421;28;20120;-75
2022/01/23 00:12:11;;;;;;;7.88;3.97;;;;;;;-12.01;71.22;101116.78;5083122;28;20075;-75
2022/01/23 00:17:33;;;;;;;7.38;4.10;;;;;;;-11.47;70.87;101107.09;5083365;28;20045;-77
2022/01/23 00:20:11;;;;;;;7.32;4.20;;;;;;;-11.03;70.37;101144.38;5083599;28;20102;-75
2022/01/23 00:22:45;;;;;;;10.13;4.20;;;;;;;-11.14;70.23;101110.69;5083319;28;20113;-74
2022/01/23 00:30:55;;;;;;;11.25;6.50;;;;;;;-10.62;70.44;101064.47;5083258;28;20048;-75
2022/01/23 00:33:25;;;;;;;6.47;3.55;;;;;;;-10.20;70.17;101091.38;5082890;28;20116;-76
2022/01/23 00:35:56;;;;;;;4.45;2.60;;;;;;;-9.73;69.56;101122.03;5067348;28;20396;-76
2022/01/23 00:38:27;;;;;;;21.65;11.68;;;;;;;-9.82;69.12;101101.97;5062798;28;20061;-77
2022/01/23 00:41:00;;;;;;;29.05;14.73;;;;;;;-9.84;69.17;101087.44;5068159;28;20107;-76
2022/01/23 00:43:32;;;;;;;20.15;8.25;;;;;;;-9.84;69.35;101078.19;5082548;28;20080;-76
2022/01/23 00:46:21;;;;;;;13.77;7.63;;;;;;;-9.83;69.12;101038.66;5082709;28;20045;-76
2022/01/23 00:49:24;;;;;;;20.88;9.77;;;;;;;-9.24;68.60;101110.63;5082792;28;20072;-76
2022/01/23 00:51:56;;;;;;;9.05;5.25;;;;;;;-9.93;68.29;100996.59;5082763;28;20072;-75
2022/01/23 00:54:27;;;;;;;5.38;3.33;;;;;;;-9.75;68.49;100992.06;5082718;28;20044;-76
2022/01/23 00:56:59;;;;;;;4.50;3.10;;;;;;;-8.95;68.11;101099.28;5082889;28;20059;-77
2022/01/23 00:59:30;;;;;;;6.00;2.55;;;;;;;-8.89;67.84;101069.34;5082739;28;20055;-77
2022/01/23 01:02:01;;;;;;;3.85;2.47;;;;;;;-8.57;67.43;101096.19;5082675;28;20076;-77
2022/01/23 01:04:32;;;;;;;4.22;2.88;;;;;;;-8.31;67.16;101098.03;5082637;28;20052;-77
2022/01/23 01:07:02;;;;;;;11.20;4.53;;;;;;;-8.10;66.82;101109.72;5082487;28;20108;-77
2022/01/23 01:09:33;;;;;;;6.05;4.07;;;;;;;-8.09;66.13;101062.41;5082563;28;20112;-76
2022/01/23 01:12:09;;;;;;;5.47;2.97;;;;;;;-7.64;65.62;101094.31;5082388;28;20095;-76
2022/01/23 01:15:11;;;;;;;5.35;1.92;;;;;;;-7.45;64.41;101094.81;5082553;28;20310;-76
2022/01/23 01:30:12;;;;;;;5.25;2.63;;;;;;;-7.40;63.36;101063.03;5081862;28;20072;-76
2022/01/23 01:31:55;;;;;;;4.07;2.33;;;;;;;-7.11;60.92;101008.25;5081028;28;20066;-76
2022/01/23 01:34:34;;;;;;;9.70;3.55;;;;;;;-6.74;59.70;101058.91;5080813;28;20041;-76
2022/01/23 01:37:05;;;;;;;11.20;4.53;;;;;;;-6.77;59.79;101053.63;5082123;28;20053;-75
2022/01/23 01:39:44;;;;;;;7.65;4.45;;;;;;;-6.95;59.89;101007.59;5082280;28;20348;-76
2022/01/23 01:42:15;;;;;;;11.70;4.80;;;;;;;-6.84;60.11;101029.50;5082013;28;20060;-75
2022/01/23 01:44:49;;;;;;;4.82;2.30;;;;;;;-6.80;59.66;101020.41;5080656;28;20045;-76
2022/01/23 01:47:20;;;;;;;11.35;4.07;;;;;;;-6.94;59.23;100978.84;5079444;28;20058;-77
2022/01/23 01:49:51;;;;;;;9.00;4.82;;;;;;;-6.72;59.40;101002.31;5077349;28;20082;-76
2022/01/23 01:52:22;;;;;;;9.00;4.43;;;;;;;-6.48;58.98;101036.88;5075740;28;20056;-76
2022/01/23 01:55:01;;;;;;;9.10;4.35;;;;;;;-6.43;59.38;101026.19;5080573;28;20110;-76
2022/01/23 01:57:39;;;;;;;7.45;3.40;;;;;;;-6.47;58.93;101003.03;5073363;28;20056;-76
2022/01/23 02:00:25;;;;;;;6.85;2.42;;;;;;;-6.17;59.10;101025.28;5069995;28;20083;-76
2022/01/23 02:03:21;;;;;;;6.85;2.45;;;;;;;-6.13;58.80;101001.81;5078659;28;20088;-77
2022/01/23 02:08:40;;;;;;;2.10;1.88;;;;;;;-6.14;57.52;101005.16;5058220;28;20044;-76
2022/01/23 02:11:16;;;;;;;2.58;1.95;;;;;;;-5.99;57.40;101015.41;5073452;28;20112;-77
2022/01/23 02:13:52;;;;;;;4.57;2.10;;;;;;;-5.96;57.82;101009.63;5050135;28;20045;-77
2022/01/23 02:17:07;;;;;;;3.90;1.90;;;;;;;-6.24;57.42;100964.69;5073628;28;20049;-77
2022/01/23 02:22:40;;;;;;;3.72;2.08;;;;;;;-6.23;56.88;100958.78;5064144;28;20045;-76
2022/01/23 02:50:32;;;;;;;4.47;2.08;;;;;;;-6.01;57.47;100995.75;5061582;28;20045;-76
2022/01/23 02:50:48;;;;;;;3.33;1.90;;;;;;;-5.69;56.75;100955.28;5064951;28;20057;-76
2022/01/23 02:56:17;;;;;;;4.93;2.83;;;;;;;-6.04;56.99;100868.31;5062767;28;20332;-75
2022/01/23 02:58:57;;;;;;;2.13;1.70;;;;;;;-5.53;56.53;100951.09;5065177;28;20045;-74
2022/01/23 03:01:31;;;;;;;2.30;2.10;;;;;;;-5.51;56.72;100945.28;5064770;28;20053;-75
2022/01/23 03:04:08;;;;;;;3.28;2.25;;;;;;;-5.46;56.54;100932.84;5064749;28;20119;-74
2022/01/23 03:06:54;;;;;;;1.90;1.67;;;;;;;-5.34;56.60;100928.47;5064522;28;20052;-75
2022/01/23 03:13:15;;;;;;;6.45;2.10;;;;;;;-5.42;56.05;100939.84;5064645;28;20413;-75
2022/01/23 03:15:25;;;;;;;5.80;2.20;;;;;;;-5.36;55.94;100930.03;5064556;28;20236;-76
2022/01/23 03:26:27;;;;;;;6.10;2.08;;;;;;;-5.43;56.01;100910.09;5031783;28;20045;-77
2022/01/23 03:29:16;;;;;;;3.67;2.08;;;;;;;-5.33;56.41;100912.38;5065310;28;20241;-75
2022/01/23 03:32:00;;;;;;;3.40;2.15;;;;;;;-5.44;56.21;100870.16;5065261;28;20383;-77
2022/01/23 03:34:30;;;;;;;3.30;1.73;;;;;;;-5.24;55.68;100895.09;5065857;28;20113;-76
2022/01/23 03:37:01;;;;;;;2.80;2.10;;;;;;;-5.16;56.00;100902.28;5078471;28;20120;-77
2022/01/23 03:39:32;;;;;;;3.08;2.20;;;;;;;-5.18;56.36;100903.88;5080148;28;20040;-76
2022/01/23 03:42:03;;;;;;;2.88;1.80;;;;;;;-5.13;56.55;100897.34;5079797;28;20072;-78
2022/01/23 03:44:47;;;;;;;3.17;2.20;;;;;;;-5.30;56.50;100868.38;5078429;28;20052;-77
2022/01/23 03:47:33;;;;;;;2.22;2.00;;;;;;;-5.12;56.47;100894.00;5072710;28;20283;-77
2022/01/23 03:50:03;;;;;;;2.53;1.92;;;;;;;-5.20;55.86;100894.44;5070208;28;20109;-78
2022/01/23 03:52:34;;;;;;;4.00;2.30;;;;;;;-5.20;55.81;100881.72;5061094;28;20053;-76
2022/01/23 03:55:06;;;;;;;2.47;2.13;;;;;;;-5.08;55.51;100886.63;5054822;28;20316;-77
2022/01/23 03:57:38;;;;;;;6.28;2.25;;;;;;;-4.94;55.84;100882.31;5063329;28;20052;-78
2022/01/23 04:00:15;;;;;;;2.83;1.90;;;;;;;-4.71;55.92;100898.00;5054692;28;20049;-78
2022/01/23 04:02:46;;;;;;;2.28;1.85;;;;;;;-4.97;55.80;100874.47;5058091;28;20048;-77
2022/01/23 04:05:17;;;;;;;9.73;5.03;;;;;;;-4.56;56.08;100884.41;5060763;28;20048;-77
2022/01/23 04:07:48;;;;;;;2.40;1.90;;;;;;;-4.33;55.41;100887.31;5069366;28;20060;-77
2022/01/23 04:10:21;;;;;;;4.00;2.30;;;;;;;-4.25;55.61;100886.03;5067391;28;20332;-77
2022/01/23 04:12:56;;;;;;;5.80;3.08;;;;;;;-4.49;54.76;100854.13;5056729;28;20480;-76
2022/01/23 04:15:35;;;;;;;3.28;2.00;;;;;;;-4.39;55.34;100880.22;5055086;28;20108;-76
2022/01/23 04:21:14;;;;;;;3.38;1.70;;;;;;;-4.29;54.00;100880.69;5012861;28;20108;-77
2022/01/23 04:32:20;;;;;;;4.80;2.20;;;;;;;-3.90;53.13;100854.69;5056712;28;20105;-76
2022/01/23 04:35:08;;;;;;;3.53;2.13;;;;;;;-4.15;53.15;100851.69;5065251;28;20088;-76
2022/01/23 04:46:30;;;;;;;2.80;1.90;;;;;;;-4.43;52.92;100870.63;5068846;28;20052;-78
2022/01/23 04:59:32;;;;;;;3.65;1.80;;;;;;;-4.62;53.70;100860.22;5046889;28;20302;-81
2022/01/23 05:00:20;;;;;;;3.10;1.92;;;;;;;-5.50;55.11;100835.00;5046686;28;20355;-81
2022/01/23 05:03:33;;;;;;;4.53;1.90;;;;;;;-5.47;55.54;100850.44;5053964;28;20038;-81
2022/01/23 05:06:02;;;;;;;5.30;2.10;;;;;;;-5.49;55.87;100867.31;5055895;28;20115;-83
2022/01/23 05:08:35;;;;;;;4.25;2.58;;;;;;;-5.51;56.43;100862.94;5052576;28;20053;-82
2022/01/23 05:11:11;;;;;;;5.15;2.25;;;;;;;-5.52;56.60;100850.97;5056956;28;20076;-82
2022/01/23 05:13:42;;;;;;;2.38;2.10;;;;;;;-5.60;56.97;100821.66;5057848;28;20049;-81
2022/01/23 05:16:13;;;;;;;2.65;2.08;;;;;;;-5.28;56.36;100857.47;5051694;28;20042;-83
2022/01/23 05:18:44;;;;;;;8.15;2.75;;;;;;;-5.42;56.94;100817.59;5047803;28;20284;-82
2022/01/23 05:21:43;;;;;;;4.43;2.42;;;;;;;-5.09;56.94;100851.75;5053188;28;20112;-82
2022/01/23 05:24:15;;;;;;;7.18;3.00;;;;;;;-5.01;57.24;100857.28;5049511;28;20091;-81
2022/01/23 05:26:46;;;;;;;4.88;2.92;;;;;;;-4.96;57.05;100849.88;5042883;28;20071;-81
2022/01/23 05:29:21;;;;;;;15.73;7.07;;;;;;;-4.98;56.50;100852.34;5044527;28;20048;-81
2022/01/23 05:31:52;;;;;;;10.43;5.28;;;;;;;-4.97;55.77;100851.53;5052097;28;20045;-81
2022/01/23 05:34:24;;;;;;;10.75;3.88;;;;;;;-5.03;55.96;100856.31;5047290;28;20056;-81
2022/01/23 05:36:57;;;;;;;5.63;3.40;;;;;;;-5.07;56.10;100846.72;5048966;28;20064;-81
2022/01/23 05:39:32;;;;;;;10.95;4.13;;;;;;;-5.16;56.79;100825.84;5041282;28;20233;-81
2022/01/23 05:42:07;;;;;;;9.15;3.38;;;;;;;-5.28;58.06;100803.09;5046990;28;20060;-81
2022/01/23 05:44:38;;;;;;;11.93;4.93;;;;;;;-4.96;57.66;100850.75;5049561;28;20056;-81
2022/01/23 05:47:10;;;;;;;14.00;5.97;;;;;;;-5.19;57.56;100821.47;5047454;28;20076;-81
2022/01/23 05:49:41;;;;;;;15.80;6.45;;;;;;;-4.97;58.40;100848.97;5043798;28;20091;-81
2022/01/23 05:52:14;;;;;;;16.27;5.80;;;;;;;-5.15;59.37;100827.59;5041075;28;20120;-81
2022/01/23 05:54:44;;;;;;;7.80;3.92;;;;;;;-5.13;58.99;100846.41;5043520;28;20132;-80
2022/01/23 05:57:15;;;;;;;11.30;4.10;;;;;;;-5.29;58.99;100848.09;5055114;28;20091;-81
2022/01/23 05:59:46;;;;;;;8.70;3.97;;;;;;;-5.33;60.93;100845.28;5059931;28;20368;-81
2022/01/23 06:02:17;;;;;;;8.05;4.07;;;;;;;-5.34;60.48;100840.94;5050817;28;20116;-82
2022/01/23 06:04:47;;;;;;;6.35;3.50;;;;;;;-6.39;59.11;100696.69;5042808;28;20065;-81
2022/01/23 06:07:20;;;;;;;8.43;3.97;;;;;;;-5.75;59.10;100807.25;5050983;28;20353;-80
2022/01/23 06:09:51;;;;;;;8.20;4.07;;;;;;;-5.98;60.25;100802.53;5052844;28;20232;-81
2022/01/23 06:12:21;;;;;;;8.07;4.53;;;;;;;-5.87;60.51;100829.44;5049693;28;20049;-81
2022/01/23 06:14:52;;;;;;;7.18;4.05;;;;;;;-5.89;60.36;100824.28;5046841;28;20060;-81
2022/01/23 06:17:23;;;;;;;8.18;4.13;;;;;;;-5.93;59.34;100841.81;5062626;28;20045;-80
2022/01/23 06:19:54;;;;;;;8.48;4.32;;;;;;;-6.12;58.32;100835.66;5044632;28;20049;-81
2022/01/23 06:22:26;;;;;;;8.05;4.43;;;;;;;-6.53;57.76;100851.84;5053258;28;20042;-81
2022/01/23 06:24:57;;;;;;;9.65;4.63;;;;;;;-7.03;58.00;100811.47;5062410;28;20053;-81
2022/01/23 06:27:29;;;;;;;8.95;4.28;;;;;;;-7.32;58.21;100807.09;5061597;28;20057;-82
2022/01/23 06:30:00;;;;;;;9.55;5.10;;;;;;;-8.07;58.65;100723.59;5052131;28;20072;-81
2022/01/23 06:32:31;;;;;;;8.18;3.85;;;;;;;-7.37;59.99;100846.53;5057225;28;20049;-81
2022/01/23 06:35:02;;;;;;;8.13;4.38;;;;;;;-7.45;60.62;100837.56;5060523;28;20112;-82
2022/01/23 06:37:34;;;;;;;9.77;4.97;;;;;;;-7.62;61.48;100795.84;5059521;28;20340;-81
2022/01/23 06:40:09;;;;;;;12.07;5.07;;;;;;;-7.40;61.09;100844.69;5064513;28;20104;-81
2022/01/23 06:42:41;;;;;;;9.15;4.22;;;;;;;-7.49;61.27;100844.09;5060130;28;20045;-81
2022/01/23 06:45:12;;;;;;;7.78;3.67;;;;;;;-7.65;61.87;100846.41;5056520;28;20052;-81
2022/01/23 06:47:42;;;;;;;10.18;3.85;;;;;;;-8.31;62.28;100738.97;5052071;28;20080;-81
2022/01/23 06:50:14;;;;;;;8.05;4.35;;;;;;;-8.17;62.31;100812.53;5057812;28;20061;-81
2022/01/23 06:52:46;;;;;;;5.38;3.42;;;;;;;-8.34;63.58;100839.25;5060675;28;20159;-83
2022/01/23 06:55:17;;;;;;;5.97;3.92;;;;;;;-8.50;64.01;100855.13;5061396;28;20049;-82
2022/01/23 06:57:48;;;;;;;17.73;9.20;;;;;;;-8.82;64.46;100842.75;5052191;28;20309;-82
2022/01/23 07:00:19;;;;;;;32.58;14.52;;;;;;;-9.38;65.66;100792.41;5063673;28;20060;-81
2022/01/23 07:02:50;;;;;;;46.90;18.35;;;;;;;-9.87;66.33;100768.59;5053536;28;20056;-82
2022/01/23 07:05:21;;;;;;;15.18;8.13;;;;;;;-9.57;66.63;100841.66;5060661;28;20060;-81
2022/01/23 07:07:54;;;;;;;39.78;19.13;;;;;;;-10.60;67.67;100704.34;5052870;28;20550;-82
2022/01/23 07:10:25;;;;;;;26.52;12.15;;;;;;;-9.79;67.68;100853.50;5059711;28;20344;-81
2022/01/23 07:12:55;;;;;;;15.80;8.57;;;;;;;-9.93;68.13;100854.09;5049758;28;20105;-80
2022/01/23 07:15:26;;;;;;;35.80;18.52;;;;;;;-10.63;68.63;100772.28;5051914;28;20113;-80
2022/01/23 07:17:58;;;;;;;23.75;15.07;;;;;;;-10.31;69.74;100847.09;5052005;28;20315;-79
2022/01/23 07:20:28;;;;;;;11.75;7.53;;;;;;;-10.48;70.81;100856.81;5047301;28;20057;-80
2022/01/23 07:23:01;;;;;;;12.82;6.38;;;;;;;-10.63;71.26;100860.69;5043685;28;20391;-79
2022/01/23 07:25:31;;;;;;;12.30;5.97;;;;;;;-10.69;72.19;100850.97;5053582;28;20084;-79
2022/01/23 07:28:03;;;;;;;7.35;4.75;;;;;;;-10.76;72.92;100852.91;5051772;28;20204;-79
2022/01/23 07:30:38;;;;;;;10.27;4.55;;;;;;;-10.89;73.17;100854.47;5051959;28;20153;-79
2022/01/23 07:33:09;;;;;;;8.40;4.00;;;;;;;-11.15;73.95;100814.59;5054907;28;20290;-78
2022/01/23 07:35:40;;;;;;;5.40;4.05;;;;;;;-10.97;74.17;100858.03;5052936;28;20277;-78
2022/01/23 07:38:16;;;;;;;8.88;4.60;;;;;;;-11.31;74.18;100817.50;5061330;28;20272;-79
2022/01/23 07:40:48;;;;;;;8.23;5.25;;;;;;;-11.41;74.02;100802.41;5053856;28;20044;-79
2022/01/23 07:43:19;;;;;;;8.60;4.45;;;;;;;-11.34;74.30;100834.94;5058629;28;20248;-78
2022/01/23 07:45:50;;;;;;;9.15;4.50;;;;;;;-11.17;74.53;100858.13;5048616;28;20121;-78
2022/01/23 07:48:21;;;;;;;13.05;7.32;;;;;;;-11.19;75.06;100862.16;5046114;28;20105;-79
2022/01/23 07:50:56;;;;;;;15.20;8.20;;;;;;;-11.21;75.14;100848.53;5048213;28;20065;-80
2022/01/23 07:53:28;;;;;;;38.55;16.45;;;;;;;-11.20;75.54;100853.72;5054930;28;20080;-80
2022/01/23 07:55:59;;;;;;;135.52;59.05;;;;;;;-11.22;75.60;100864.44;5048367;28;20050;-79
2022/01/23 07:58:30;;;;;;;283.92;122.18;;;;;;;-12.06;75.86;100740.09;5049903;28;20107;-79
2022/01/23 08:01:02;;;;;;;213.35;82.50;;;;;;;-11.97;76.49;100786.19;5060750;28;20372;-78
2022/01/23 08:03:36;;;;;;;147.77;58.88;;;;;;;-11.74;76.42;100814.09;5042945;28;20045;-79
2022/01/23 08:06:11;;;;;;;105.28;49.50;;;;;;;-11.60;76.44;100829.47;5051843;28;20108;-79
2022/01/23 08:08:43;;;;;;;44.17;24.90;;;;;;;-11.36;76.68;100861.66;5054961;28;20101;-78
2022/01/23 08:11:14;;;;;;;41.70;22.45;;;;;;;-11.32;76.95;100852.72;5057558;28;20291;-79
2022/01/23 08:13:45;;;;;;;33.35;18.10;;;;;;;-11.35;77.17;100858.41;5053436;28;20059;-78
2022/01/23 08:16:16;;;;;;;16.20;11.68;;;;;;;-11.57;76.79;100844.84;5054030;28;20057;-78
2022/01/23 08:18:47;;;;;;;25.92;16.58;;;;;;;-11.66;76.69;100846.59;5055327;28;20056;-79
2022/01/23 08:21:18;;;;;;;28.50;22.33;;;;;;;-11.55;77.23;100856.81;5047108;28;20112;-79
2022/01/23 08:23:52;;;;;;;27.77;16.58;;;;;;;-11.51;77.11;100862.97;5046123;28;20132;-79
2022/01/23 08:26:25;;;;;;;41.50;17.83;;;;;;;-11.71;76.80;100841.19;5053297;28;20303;-78
2022/01/23 08:28:56;;;;;;;11.82;6.88;;;;;;;-11.70;76.77;100877.34;5057473;28;20407;-78
2022/01/23 08:31:26;;;;;;;9.60;5.88;;;;;;;-11.82;76.78;100878.13;5059221;28;20084;-78
2022/01/23 08:33:57;;;;;;;9.93;6.45;;;;;;;-12.75;76.87;100763.00;5050274;28;20041;-78
2022/01/23 08:36:29;;;;;;;9.50;5.95;;;;;;;-12.04;77.27;100870.47;5052896;28;20064;-77
2022/01/23 08:39:01;;;;;;;13.13;7.68;;;;;;;-12.48;78.02;100839.03;5049442;28;20059;-77
2022/01/23 08:44:29;;;;;;;18.48;10.40;;;;;;;-13.01;78.44;100782.56;5012077;28;20113;-78
2022/01/23 08:47:02;;;;;;;37.58;17.10;;;;;;;-13.00;78.36;100786.81;5051155;28;20088;-78
2022/01/23 08:49:34;;;;;;;47.10;28.90;;;;;;;-13.42;78.58;100762.31;5059634;28;20079;-78
2022/01/23 08:52:06;;;;;;;46.33;26.67;;;;;;;-13.34;78.93;100751.28;5058047;28;20083;-77
2022/01/23 08:54:39;;;;;;;50.22;25.05;;;;;;;-12.86;78.90;100854.28;5057589;28;20053;-80
2022/01/23 08:57:10;;;;;;;45.53;20.33;;;;;;;-12.71;79.25;100875.75;5057295;28;20364;-79
2022/01/23 08:59:42;;;;;;;23.98;12.43;;;;;;;-12.91;79.27;100840.44;5057593;28;20053;-78
2022/01/23 09:02:13;;;;;;;20.95;9.45;;;;;;;-12.58;79.57;100904.47;5062000;28;20211;-78
2022/01/23 09:04:44;;;;;;;22.60;10.15;;;;;;;-13.05;79.77;100792.34;5054508;28;20321;-78
2022/01/23 09:07:16;;;;;;;12.52;6.43;;;;;;;-13.54;79.33;100711.88;5048795;28;20094;-80
2022/01/23 09:09:48;;;;;;;11.30;7.35;;;;;;;-12.99;79.88;100808.72;5061155;28;20079;-79
2022/01/23 09:12:41;;;;;;;9.82;5.65;;;;;;;-13.18;79.33;100804.59;5050311;28;20095;-77
2022/01/23 09:15:13;;;;;;;10.18;7.38;;;;;;;-13.49;79.39;100786.03;5008541;28;20069;-78
2022/01/23 09:17:44;;;;;;;11.40;7.28;;;;;;;-13.09;79.47;100845.66;4991915;28;20046;-78
2022/01/23 09:20:15;;;;;;;11.50;8.02;;;;;;;-13.82;79.59;100728.72;4994336;28;20042;-79
2022/01/23 09:22:45;;;;;;;10.25;5.93;;;;;;;-13.05;80.17;100852.72;4990974;28;20435;-78
2022/01/23 09:25:21;;;;;;;9.65;6.82;;;;;;;-13.63;79.92;100761.34;4983285;28;20065;-78
2022/01/23 09:27:52;;;;;;;7.03;5.07;;;;;;;-13.35;79.93;100847.56;4982874;28;20055;-78
2022/01/23 09:30:23;;;;;;;8.90;5.43;;;;;;;-13.69;79.63;100787.69;4988640;28;20133;-78
2022/01/23 09:32:53;;;;;;;6.70;4.07;;;;;;;-13.89;79.54;100761.56;4984430;28;20047;-77
2022/01/23 09:35:24;;;;;;;9.00;4.53;;;;;;;-13.75;79.56;100801.34;4987753;28;20047;-78
2022/01/23 09:37:55;;;;;;;8.75;5.30;;;;;;;-14.03;79.59;100768.75;5009031;28;20057;-78
2022/01/23 09:40:28;;;;;;;8.75;4.65;;;;;;;-14.19;79.29;100808.31;5005614;28;20027;-78
2022/01/23 09:43:07;;;;;;;4.93;3.60;;;;;;;-14.73;79.17;100722.31;5004675;28;20047;-79
2022/01/23 09:45:39;;;;;;;7.15;4.45;;;;;;;-14.57;79.76;100750.56;5008536;28;20041;-79
2022/01/23 09:48:10;;;;;;;7.60;4.32;;;;;;;-14.01;79.93;100876.88;4998944;28;20058;-79
2022/01/23 09:50:44;;;;;;;10.07;5.07;;;;;;;-14.37;80.58;100827.63;4994187;28;20285;-79
2022/01/23 09:53:16;;;;;;;11.15;5.93;;;;;;;-14.98;80.73;100730.09;4997633;28;20069;-78
2022/01/23 09:55:49;;;;;;;7.32;4.70;;;;;;;-14.48;80.46;100836.66;4999665;28;20365;-78
2022/01/23 09:58:26;;;;;;;6.90;4.60;;;;;;;-14.82;80.15;100816.03;4987803;28;20089;-78
2022/01/23 10:00:58;;;;;;;7.93;3.97;;;;;;;-15.03;80.45;100766.41;4988804;28;20042;-77
2022/01/23 10:03:29;;;;;;;5.90;3.95;;;;;;;-14.44;80.17;100873.84;4995861;28;20061;-80
2022/01/23 10:06:00;;;;;;;10.48;5.47;;;;;;;-14.60;80.07;100830.56;4987057;28;20238;-78
2022/01/23 10:08:32;;;;;;;19.90;9.15;;;;;;;-14.83;79.90;100811.75;4986763;28;20109;-77
2022/01/23 10:11:12;;;;;;;21.23;9.18;;;;;;;-15.00;80.27;100751.63;4984888;28;20308;-78
2022/01/23 10:13:44;;;;;;;16.33;6.93;;;;;;;-14.36;80.76;100797.63;4998193;28;20094;-77
2022/01/23 10:16:14;;;;;;;12.73;6.82;;;;;;;-13.75;79.41;100881.72;4991992;28;20054;-77
2022/01/23 10:18:46;;;;;;;15.40;7.20;;;;;;;-14.32;78.75;100792.88;5001712;28;20093;-77
2022/01/23 10:21:18;;;;;;;55.95;16.08;;;;;;;-14.61;78.52;100763.56;4999344;28;20106;-77
2022/01/23 10:23:50;;;;;;;93.75;25.63;;;;;;;-14.44;78.00;100838.72;4984876;28;20054;-77
2022/01/23 10:26:44;;;;;;;66.53;17.80;;;;;;;-14.22;78.37;100861.66;4987481;28;20042;-78
2022/01/23 10:29:17;;;;;;;30.40;10.95;;;;;;;-14.21;78.34;100847.47;5000138;28;20116;-78
2022/01/23 10:32:10;;;;;;;27.63;9.98;;;;;;;-14.35;78.73;100789.38;5006219;28;20062;-79
2022/01/23 10:34:54;;;;;;;14.95;7.60;;;;;;;-13.71;77.67;100868.72;5006519;28;20060;-80
2022/01/23 10:37:31;;;;;;;7.80;4.10;;;;;;;-14.60;77.72;100725.16;5003500;28;20069;-80
2022/01/23 10:40:12;;;;;;;9.07;4.68;;;;;;;-14.99;77.09;100713.31;5003269;28;20051;-78
2022/01/23 10:46:37;;;;;;;6.75;4.05;;;;;;;-14.63;77.56;100777.59;5001355;28;20054;-78
2022/01/23 10:48:48;;;;;;;5.13;3.08;;;;;;;-14.55;77.66;100769.13;5000236;28;20242;-78
2022/01/23 10:51:26;;;;;;;5.95;4.20;;;;;;;-13.79;77.66;100874.69;4998953;28;20069;-77
2022/01/23 10:54:13;;;;;;;10.00;4.93;;;;;;;-13.78;77.84;100868.91;4986964;28;20093;-77
2022/01/23 10:57:01;;;;;;;7.78;4.53;;;;;;;-14.38;77.54;100774.00;4995565;28;20046;-78
2022/01/23 10:59:45;;;;;;;6.93;3.88;;;;;;;-13.93;77.55;100871.78;4995816;28;20326;-79
2022/01/23 11:02:21;;;;;;;8.27;3.65;;;;;;;-14.25;77.15;100846.31;5000133;28;20046;-78
2022/01/23 11:05:01;;;;;;;4.47;3.08;;;;;;;-14.05;77.16;100860.69;5000258;28;20121;-79
2022/01/23 11:07:33;;;;;;;4.40;3.10;;;;;;;-14.65;77.31;100751.47;4991710;28;20055;-78
2022/01/23 11:10:07;;;;;;;5.60;3.30;;;;;;;-14.51;76.41;100765.25;4998392;28;20097;-79
2022/01/23 11:17:21;;;;;;;4.45;3.35;;;;;;;-14.38;76.24;100769.00;4999389;28;20047;-79
2022/01/23 11:18:41;;;;;;;3.25;2.92;;;;;;;-14.13;75.68;100796.31;4985180;28;20090;-78
2022/01/23 11:21:21;;;;;;;5.00;2.97;;;;;;;-13.77;75.01;100858.13;4987122;28;20046;-78
2022/01/23 11:24:11;;;;;;;;;;;;;;;-14.03;74.33;100854.13;4994209;28;20229;-79
2022/01/23 11:26:43;;;;;;;3.55;2.72;;;;;;;-14.63;74.51;100770.06;4998279;28;20189;-79
2022/01/23 11:29:15;;;;;;;5.13;3.17;;;;;;;-14.26;74.45;100871.25;4995157;28;20050;-79
2022/01/23 11:31:48;;;;;;;4.85;3.63;;;;;;;-14.66;74.83;100820.84;4996374;28;20053;-81
2022/01/23 11:34:24;;;;;;;6.00;4.10;;;;;;;-14.81;74.82;100850.41;4989984;28;20054;-81
2022/01/23 11:36:58;;;;;;;6.30;3.30;;;;;;;-15.23;75.27;100812.19;4994321;28;20255;-81
2022/01/23 11:39:39;;;;;;;5.72;3.78;;;;;;;-15.10;76.21;100834.25;4988264;28;20056;-79
2022/01/23 11:51:05;;;;;;;4.53;2.50;;;;;;;-14.59;76.55;100819.78;4995951;28;20043;-83
2022/01/23 11:53:51;;;;;;;3.08;2.63;;;;;;;-14.56;75.70;100817.56;4999759;28;20111;-85
2022/01/23 11:56:43;;;;;;;5.22;2.75;;;;;;;-14.48;75.82;100831.63;4999523;28;20254;-85
2022/01/23 11:59:28;;;;;;;3.17;2.67;;;;;;;-14.71;74.44;100801.09;4993368;28;20042;-82
2022/01/23 12:05:24;;;;;;;10.10;5.95;;;;;;;-14.96;74.81;100813.88;4993173;28;20050;-83
2022/01/23 12:08:36;;;;;;;5.78;4.47;;;;;;;-14.89;75.55;100826.25;4999531;28;20101;-81
2022/01/23 12:17:44;;;;;;;6.32;3.17;;;;;;;-14.91;77.38;100752.50;4999216;28;20303;-78
2022/01/23 12:20:32;;;;;;;3.83;2.97;;;;;;;-14.68;76.73;100807.25;4998016;28;20066;-79
2022/01/23 12:23:05;;;;;;;5.65;3.80;;;;;;;-15.09;77.41;100720.72;4999910;28;20078;-80
2022/01/23 12:25:43;;;;;;;4.97;3.90;;;;;;;-14.75;76.80;100758.91;4998244;28;20042;-80
2022/01/23 12:28:25;;;;;;;8.25;4.53;;;;;;;-15.32;76.11;100650.91;4999281;28;20042;-80
2022/01/23 12:30:57;;;;;;;11.73;5.43;;;;;;;-14.38;75.58;100809.16;4995997;28;20093;-80
2022/01/23 12:33:33;;;;;;;4.82;3.40;;;;;;;-14.37;74.84;100800.91;4998631;28;20050;-80
2022/01/23 12:36:08;;;;;;;2.60;2.40;;;;;;;-15.45;74.31;100671.47;4997790;28;20074;-80
2022/01/23 12:38:43;;;;;;;6.25;2.75;;;;;;;-15.59;73.83;100654.28;4999456;28;20330;-80
2022/01/23 12:41:23;;;;;;;4.28;3.70;;;;;;;-14.80;74.27;100842.16;4998692;28;20046;-80
2022/01/23 12:43:55;;;;;;;;;;;;;;;-14.97;74.21;100812.13;4999039;28;20109;-79
2022/01/23 12:46:40;;;;;;;4.53;3.72;;;;;;;-15.75;74.60;100672.91;4998431;28;19926;-80
2022/01/23 12:49:26;;;;;;;3.50;3.20;;;;;;;-15.52;74.52;100707.59;4996072;28;20074;-79
2022/01/23 12:52:15;;;;;;;3.50;2.90;;;;;;;-15.62;74.17;100679.03;5000746;28;20100;-79
2022/01/23 12:54:56;;;;;;;3.20;2.90;;;;;;;-15.12;73.47;100755.50;4990358;28;20085;-80
2022/01/23 12:57:37;;;;;;;4.40;3.10;;;;;;;-14.92;72.93;100760.78;4989829;28;20070;-80
2022/01/23 13:00:16;;;;;;;3.33;2.88;;;;;;;-14.86;71.94;100841.56;4988729;28;20050;-81
2022/01/23 13:02:50;;;;;;;3.50;2.50;;;;;;;-15.35;71.17;100781.81;5001695;28;20321;-80
2022/01/23 13:05:21;;;;;;;3.10;2.55;;;;;;;-15.46;70.81;100782.44;4996103;28;20051;-80
2022/01/23 13:08:06;;;;;;;2.85;2.40;;;;;;;-16.27;70.69;100683.03;4997258;28;20097;-80
2022/01/23 13:10:57;;;;;;;3.25;2.67;;;;;;;-16.38;71.48;100703.59;4995238;28;20359;-80
2022/01/23 13:13:37;;;;;;;3.88;2.92;;;;;;;-16.33;72.38;100732.44;4990122;28;20066;-79
2022/01/23 13:16:25;;;;;;;4.47;3.08;;;;;;;-15.93;74.23;100806.38;4998673;28;20517;-79
2022/01/23 13:19:33;;;;;;;4.80;3.75;;;;;;;-16.29;74.88;100773.69;4982874;28;20090;-79
2022/01/23 13:30:49;;;;;;;137.32;45.13;;;;;;;-16.32;74.61;100806.78;4960311;28;20043;-78
2022/01/23 13:33:23;;;;;;;89.75;30.08;;;;;;;-16.64;74.41;100769.47;4992157;28;20096;-80
2022/01/23 13:35:54;;;;;;;64.43;24.70;;;;;;;-16.46;74.66;100789.53;4991598;28;20349;-80
2022/01/23 13:38:25;;;;;;;96.75;32.33;;;;;;;-16.42;74.21;100796.59;4994929;28;20109;-80
2022/01/23 13:41:05;;;;;;;195.15;73.60;;;;;;;-16.49;74.08;100805.13;4992243;28;20117;-80
2022/01/23 13:52:35;;;;;;;364.08;69.70;;;;;;;-17.20;72.99;100792.22;4987236;28;20042;-80
2022/01/23 14:00:41;;;;;;;338.88;68.93;;;;;;;-17.17;74.13;100792.53;4993108;28;20386;-80
2022/01/23 14:03:13;;;;;;;154.20;37.13;;;;;;;-17.74;74.01;100723.44;4991914;28;20475;-80
2022/01/23 14:05:44;;;;;;;404.40;72.25;;;;;;;-18.00;74.74;100679.28;4999726;28;20085;-80
2022/01/23 14:08:15;;;;;;;30.38;12.98;;;;;;;-18.00;75.19;100659.34;4996418;28;20409;-80
2022/01/23 14:10:46;;;;;;;110.85;21.65;;;;;;;-17.54;74.91;100773.81;4990176;28;20050;-80
2022/01/23 14:13:19;;;;;;;309.77;54.92;;;;;;;-17.48;74.94;100769.44;4996161;28;20074;-80
2022/01/23 14:15:55;;;;;;;342.05;60.38;;;;;;;-17.38;75.05;100770.38;4983358;28;20231;-80
2022/01/23 14:18:28;;;;;;;250.00;48.97;;;;;;;-17.71;74.83;100659.75;4995639;28;20121;-79